Time;durP1;ratioP1;P1;durP2;ratioP2;P2;SDS_P1;SDS_P2;PMS_P1;PMS_P2;Temp;Humidity;BMP_temperature;BMP_pressure;BME280_temperature;BME280_humidity;BME280_pressure;Samples;Min_cycle;Max_cycle;Signal;HPM_P1;HPM_P2
2021/10/04 05:14:12;;;;;;;1.60;1.30;;;12.50;99.90;;;;;;5342616;23;21718;-72
2021/10/04 05:16:37;;;;;;;3.33;1.40;;;12.50;99.90;;;;;;4965096;28;20491;-73
2021/10/04 05:19:03;;;;;;;1.40;1.30;;;12.60;99.90;;;;;;4974370;28;20709;-72
2021/10/04 05:21:28;;;;;;;1.40;1.30;;;12.60;99.90;;;;;;4974478;28;20232;-73
2021/10/04 05:23:54;;;;;;;1.83;1.33;;;12.60;99.90;;;;;;4974019;28;20241;-74
2021/10/04 05:26:20;;;;;;;1.80;1.50;;;12.70;99.90;;;;;;4972282;28;20243;-74
2021/10/04 05:28:45;;;;;;;1.40;1.20;;;12.70;99.90;;;;;;4974566;28;20229;-74
2021/10/04 05:31:11;;;;;;;1.53;1.43;;;12.70;99.90;;;;;;4973068;28;20678;-74
2021/10/04 05:33:37;;;;;;;1.73;1.63;;;12.70;99.90;;;;;;4974407;28;20580;-72
2021/10/04 05:36:04;;;;;;;1.90;1.80;;;12.70;99.90;;;;;;4974465;28;20197;-73
2021/10/04 05:38:30;;;;;;;2.20;1.53;;;12.60;99.90;;;;;;4973604;28;20205;-72
2021/10/04 05:40:55;;;;;;;2.03;1.43;;;12.60;99.90;;;;;;4978946;28;20488;-74
2021/10/04 05:43:21;;;;;;;1.53;1.40;;;12.70;99.90;;;;;;4974366;28;20229;-72
2021/10/04 05:45:46;;;;;;;1.90;1.80;;;12.70;99.90;;;;;;4974438;28;20209;-75
2021/10/04 05:48:12;;;;;;;3.00;1.30;;;12.70;99.90;;;;;;4968182;28;20213;-73
2021/10/04 05:50:37;;;;;;;3.27;1.40;;;12.70;99.90;;;;;;4957233;29;20201;-74
2021/10/04 05:53:03;;;;;;;2.00;1.23;;;12.80;99.90;;;;;;4958867;28;20745;-75
2021/10/04 05:55:29;;;;;;;2.50;1.30;;;12.80;99.90;;;;;;4995672;28;20212;-74
2021/10/04 05:57:54;;;;;;;1.60;1.50;;;12.80;99.90;;;;;;4996312;28;20212;-74
2021/10/04 06:00:20;;;;;;;1.53;1.30;;;12.80;99.90;;;;;;4992199;28;20216;-73
2021/10/04 06:02:46;;;;;;;1.63;1.17;;;12.90;99.90;;;;;;4984282;28;20601;-74
2021/10/04 06:05:12;;;;;;;1.60;1.50;;;12.80;99.90;;;;;;4975736;28;20220;-73
2021/10/04 06:07:38;;;;;;;1.57;1.47;;;12.90;99.90;;;;;;4987416;28;20284;-73
2021/10/04 06:10:05;;;;;;;1.93;1.80;;;12.90;99.90;;;;;;4993239;28;20452;-74
2021/10/04 06:12:31;;;;;;;1.67;1.40;;;12.90;99.90;;;;;;4993674;28;20495;-74
2021/10/04 06:14:58;;;;;;;1.53;1.43;;;12.90;99.90;;;;;;4979500;28;20448;-73
2021/10/04 06:17:24;;;;;;;2.87;1.70;;;12.90;99.90;;;;;;4973512;28;20243;-73
2021/10/04 06:19:50;;;;;;;3.17;1.43;;;12.90;99.90;;;;;;4974226;28;20535;-73
2021/10/04 06:22:15;;;;;;;2.38;1.40;;;12.90;99.90;;;;;;4968192;28;20429;-73
2021/10/04 06:24:41;;;;;;;2.30;1.70;;;13.00;99.90;;;;;;4955060;28;20209;-73
2021/10/04 06:27:08;;;;;;;1.80;1.67;;;13.00;99.90;;;;;;4953397;28;20209;-73
2021/10/04 06:29:33;;;;;;;1.80;1.70;;;13.00;99.90;;;;;;4962301;28;20287;-73
2021/10/04 06:31:59;;;;;;;1.93;1.43;;;13.10;99.90;;;;;;4972081;28;20622;-74
2021/10/04 06:34:25;;;;;;;2.20;1.27;;;13.00;99.90;;;;;;4973275;28;20207;-74
2021/10/04 06:36:50;;;;;;;3.73;1.73;;;13.10;99.90;;;;;;4974127;28;20208;-73
2021/10/04 06:39:16;;;;;;;2.10;1.60;;;13.10;99.90;;;;;;4973462;28;20224;-73
2021/10/04 06:41:41;;;;;;;2.23;1.50;;;13.10;99.90;;;;;;4965023;28;20210;-73
2021/10/04 06:44:10;;;;;;;2.00;1.80;;;13.10;99.90;;;;;;4953790;28;20225;-73
2021/10/04 06:46:37;;;;;;;2.73;1.70;;;13.10;99.90;;;;;;4955299;29;20198;-73
2021/10/04 06:49:04;;;;;;;1.63;1.53;;;13.10;99.90;;;;;;4953712;28;20468;-72
2021/10/04 06:51:30;;;;;;;2.63;1.43;;;13.10;99.90;;;;;;4955218;28;20826;-75
2021/10/04 06:53:56;;;;;;;1.50;1.40;;;13.10;99.90;;;;;;4972986;28;20475;-75
2021/10/04 06:56:21;;;;;;;2.03;1.60;;;13.10;99.90;;;;;;4992559;28;20447;-74
2021/10/04 06:58:47;;;;;;;3.53;1.80;;;13.20;99.90;;;;;;4998468;28;20216;-75
2021/10/04 07:01:12;;;;;;;2.20;1.50;;;13.20;99.90;;;;;;4973898;28;20629;-73
2021/10/04 07:03:38;;;;;;;1.90;1.70;;;13.30;99.90;;;;;;4973811;28;20208;-73
2021/10/04 07:06:04;;;;;;;1.80;1.70;;;13.30;99.90;;;;;;4975641;28;20201;-73
2021/10/04 07:08:30;;;;;;;3.33;1.60;;;13.30;99.90;;;;;;4975905;28;20885;-74
2021/10/04 07:10:56;;;;;;;1.60;1.50;;;13.40;99.90;;;;;;4973706;28;20431;-74
2021/10/04 07:13:22;;;;;;;2.83;1.30;;;13.50;99.90;;;;;;4956450;28;20232;-73
2021/10/04 07:15:48;;;;;;;1.67;1.57;;;13.50;99.90;;;;;;4956140;28;20309;-74
2021/10/04 07:18:14;;;;;;;3.13;1.60;;;13.50;99.90;;;;;;4956396;28;20937;-73
2021/10/04 07:20:40;;;;;;;3.33;2.03;;;13.60;99.90;;;;;;4960037;28;20435;-74
2021/10/04 07:23:05;;;;;;;2.70;1.80;;;13.60;99.90;;;;;;4961926;28;20429;-74
2021/10/04 07:25:32;;;;;;;2.87;1.40;;;13.60;99.90;;;;;;4961987;29;20240;-73
2021/10/04 07:27:58;;;;;;;2.00;1.37;;;13.70;99.90;;;;;;4962693;28;20210;-72
2021/10/04 07:30:25;;;;;;;1.43;1.30;;;13.70;99.90;;;;;;4963222;28;20459;-72
2021/10/04 07:32:51;;;;;;;1.57;1.47;;;13.80;99.90;;;;;;4964070;28;20197;-73
2021/10/04 07:35:16;;;;;;;1.47;1.37;;;13.80;99.90;;;;;;4962474;29;20910;-73
2021/10/04 07:37:42;;;;;;;1.80;1.40;;;13.90;99.90;;;;;;4962946;28;20404;-73
2021/10/04 07:40:10;;;;;;;2.60;1.63;;;13.90;99.90;;;;;;4962010;29;20212;-73
2021/10/04 07:42:36;;;;;;;2.90;2.67;;;14.00;99.90;;;;;;4963282;28;20181;-73
2021/10/04 07:45:03;;;;;;;2.40;1.80;;;14.10;99.90;;;;;;4962591;28;20512;-73
2021/10/04 07:47:28;;;;;;;1.63;1.33;;;14.10;99.90;;;;;;4962980;28;20425;-74
2021/10/04 07:49:54;;;;;;;2.70;1.53;;;14.20;99.90;;;;;;4963041;29;20747;-72
2021/10/04 07:52:21;;;;;;;3.17;2.07;;;14.10;99.90;;;;;;4963408;28;20201;-74
2021/10/04 07:54:46;;;;;;;2.00;1.83;;;14.10;99.90;;;;;;4993580;28;20593;-72
2021/10/04 07:57:13;;;;;;;1.90;1.73;;;14.10;99.90;;;;;;5001218;28;20454;-74
2021/10/04 07:59:40;;;;;;;4.90;1.83;;;14.20;99.90;;;;;;5001504;28;20165;-73
2021/10/04 08:02:10;;;;;;;3.07;1.50;;;14.30;99.90;;;;;;4999555;28;20785;-74
2021/10/04 08:04:37;;;;;;;2.97;1.80;;;14.30;99.90;;;;;;4964505;28;20436;-73
2021/10/04 08:07:04;;;;;;;4.93;2.10;;;14.30;99.90;;;;;;4964306;28;20471;-75
2021/10/04 08:09:30;;;;;;;1.83;1.70;;;14.40;99.90;;;;;;4966435;28;20432;-73
2021/10/04 08:11:56;;;;;;;2.60;1.67;;;14.40;99.90;;;;;;4964030;28;20473;-74
2021/10/04 08:14:22;;;;;;;1.93;1.83;;;14.40;99.90;;;;;;4976252;28;20648;-74
2021/10/04 08:16:48;;;;;;;2.03;1.60;;;14.40;99.90;;;;;;4981649;28;20432;-74
2021/10/04 08:19:14;;;;;;;2.53;2.10;;;14.50;99.90;;;;;;4983184;28;20813;-76
2021/10/04 08:21:40;;;;;;;1.70;1.43;;;14.60;99.90;;;;;;4983583;28;20173;-73
2021/10/04 08:24:06;;;;;;;2.23;1.77;;;14.60;99.90;;;;;;4984612;28;20714;-74
2021/10/04 08:26:31;;;;;;;3.17;2.33;;;14.60;99.90;;;;;;4983629;28;20416;-73
2021/10/04 08:28:57;;;;;;;4.50;1.63;;;14.70;99.90;;;;;;4985264;28;20419;-73
2021/10/04 08:31:29;;;;;;;3.42;1.80;;;14.70;99.90;;;;;;4984054;28;20950;-74
2021/10/04 08:33:57;;;;;;;2.27;1.60;;;14.80;99.90;;;;;;4981613;28;20184;-76
2021/10/04 08:36:23;;;;;;;2.13;1.97;;;14.90;99.90;;;;;;4980539;28;20491;-75
2021/10/04 08:38:49;;;;;;;4.77;2.07;;;14.90;99.90;;;;;;4983268;28;20415;-73
2021/10/04 08:41:18;;;;;;;2.43;1.60;;;14.90;99.90;;;;;;4981027;28;20436;-75
2021/10/04 08:43:50;;;;;;;2.40;1.70;;;14.90;99.90;;;;;;4978256;28;20177;-75
2021/10/04 08:46:17;;;;;;;3.73;2.00;;;14.90;99.90;;;;;;4980461;28;20436;-75
2021/10/04 08:48:43;;;;;;;2.20;2.00;;;14.90;99.90;;;;;;4979758;28;20432;-74
2021/10/04 08:51:10;;;;;;;2.47;1.50;;;14.90;99.90;;;;;;4962533;28;20449;-75
2021/10/04 08:53:37;;;;;;;2.00;1.90;;;14.90;99.90;;;;;;4961164;28;20974;-75
2021/10/04 08:56:03;;;;;;;1.97;1.70;;;14.90;99.90;;;;;;4963534;28;20520;-77
2021/10/04 08:58:32;;;;;;;2.20;1.60;;;14.90;99.90;;;;;;4981707;28;20441;-76
2021/10/04 09:00:58;;;;;;;3.37;1.97;;;14.90;99.90;;;;;;4981223;28;20499;-75
2021/10/04 09:03:24;;;;;;;2.13;2.03;;;15.00;99.90;;;;;;4981334;28;20408;-73
2021/10/04 09:05:56;;;;;;;4.40;1.80;;;15.10;99.90;;;;;;4981689;28;20439;-78
2021/10/04 09:08:22;;;;;;;2.37;1.90;;;15.10;99.90;;;;;;4983553;28;20173;-74
2021/10/04 09:10:55;;;;;;;1.93;1.83;;;15.20;99.90;;;;;;4981215;28;20463;-74
2021/10/04 09:13:21;;;;;;;4.70;2.60;;;15.20;99.90;;;;;;4982277;28;20223;-74
2021/10/04 09:15:49;;;;;;;2.30;1.70;;;15.30;99.90;;;;;;4988729;28;20448;-73
2021/10/04 09:18:14;;;;;;;3.40;2.00;;;15.20;99.90;;;;;;4989498;28;20417;-73
2021/10/04 09:21:00;;;;;;;1.80;1.53;;;15.20;99.90;;;;;;4994742;28;20948;-74
2021/10/04 09:23:34;;;;;;;2.70;1.93;;;15.20;99.90;;;;;;4996198;28;20241;-74
2021/10/04 09:26:02;;;;;;;1.80;1.70;;;15.20;99.90;;;;;;4998468;28;20428;-73
2021/10/04 09:28:32;;;;;;;3.60;2.00;;;15.20;99.90;;;;;;4993371;28;20496;-73
2021/10/04 09:31:18;;;;;;;2.07;1.70;;;15.30;99.90;;;;;;4960704;28;20762;-74
2021/10/04 09:34:00;;;;;;;3.57;2.10;;;15.30;99.90;;;;;;4961694;28;20453;-74
2021/10/04 09:36:28;;;;;;;3.10;1.90;;;15.30;99.90;;;;;;4960751;28;20414;-73
2021/10/04 09:39:16;;;;;;;2.00;1.57;;;15.20;99.90;;;;;;4962331;28;20913;-73
2021/10/04 09:42:00;;;;;;;3.38;2.00;;;15.20;99.90;;;;;;4978264;28;20573;-73
2021/10/04 09:44:27;;;;;;;2.27;2.07;;;15.30;99.90;;;;;;4985507;28;20224;-72
2021/10/04 09:47:18;;;;;;;2.83;1.93;;;15.30;99.90;;;;;;4969249;28;20954;-73
2021/10/04 09:50:16;;;;;;;2.40;2.20;;;15.30;99.90;;;;;;4959041;28;20398;-72
2021/10/04 09:52:43;;;;;;;3.17;1.80;;;15.40;99.90;;;;;;4956381;28;20499;-73
2021/10/04 09:55:32;;;;;;;3.10;1.80;;;15.50;99.90;;;;;;4958482;28;20472;-73
2021/10/04 09:58:15;;;;;;;3.23;1.73;;;15.40;99.90;;;;;;4972264;28;20424;-73
2021/10/04 10:00:43;;;;;;;3.80;1.73;;;15.40;99.90;;;;;;4975609;28;20424;-74
2021/10/04 10:03:11;;;;;;;2.90;2.13;;;15.50;99.90;;;;;;4976933;28;20421;-73
2021/10/04 10:05:40;;;;;;;2.87;1.70;;;15.40;99.90;;;;;;4976793;28;20515;-73
2021/10/04 10:08:06;;;;;;;3.70;2.27;;;15.50;99.90;;;;;;4977323;28;20424;-75
2021/10/04 10:10:32;;;;;;;2.70;2.10;;;15.50;99.90;;;;;;4977003;28;20436;-73
2021/10/04 10:15:34;;;;;;;2.33;1.80;;;15.50;99.90;;;;;;5030140;23;20819;-73
2021/10/04 10:18:23;;;;;;;2.10;1.60;;;15.50;99.90;;;;;;4972442;28;20495;-73
2021/10/04 10:21:02;;;;;;;2.70;1.90;;;15.60;99.90;;;;;;4956014;28;20508;-73
2021/10/04 10:23:50;;;;;;;1.90;1.80;;;15.60;99.90;;;;;;4955482;28;20410;-73
2021/10/04 10:26:31;;;;;;;2.23;1.60;;;15.70;99.90;;;;;;4962144;28;20506;-73
2021/10/04 10:29:08;;;;;;;4.10;1.60;;;15.70;99.90;;;;;;4975199;28;20825;-74
2021/10/04 10:32:06;;;;;;;2.23;1.67;;;15.80;99.90;;;;;;4975649;28;20412;-73
2021/10/04 10:34:32;;;;;;;2.77;1.87;;;16.00;99.90;;;;;;4915724;29;20885;-74
2021/10/04 10:37:09;;;;;;;2.03;1.70;;;16.10;99.90;;;;;;4914236;29;20431;-74
2021/10/04 10:39:42;;;;;;;2.90;1.90;;;16.20;99.90;;;;;;4915922;29;20675;-74
2021/10/04 10:42:10;;;;;;;3.33;1.80;;;16.20;99.90;;;;;;4912774;29;20524;-74
2021/10/04 10:44:56;;;;;;;2.33;1.50;;;16.40;99.90;;;;;;4896131;29;20464;-74
2021/10/04 10:47:35;;;;;;;2.13;1.63;;;16.50;99.90;;;;;;4896713;29;20420;-74
2021/10/04 10:50:31;;;;;;;2.00;1.80;;;16.60;99.90;;;;;;4896442;29;20773;-74
2021/10/04 10:52:57;;;;;;;1.67;1.57;;;16.80;99.90;;;;;;4903063;29;21058;-75
2021/10/04 10:55:22;;;;;;;2.47;1.90;;;17.00;99.90;;;;;;4914159;29;20447;-74
2021/10/04 10:57:54;;;;;;;1.53;1.43;;;17.20;99.90;;;;;;4915495;29;20191;-75
2021/10/04 11:00:24;;;;;;;4.67;1.70;;;17.20;99.90;;;;;;4916365;29;20265;-74
2021/10/04 11:03:12;;;;;;;2.00;1.67;;;17.20;99.90;;;;;;4899330;29;20427;-74
2021/10/04 11:05:38;;;;;;;1.93;1.73;;;17.30;99.90;;;;;;4878422;29;20617;-75
2021/10/04 11:08:17;;;;;;;3.57;1.40;;;17.40;99.90;;;;;;4896418;29;20428;-74
2021/10/04 11:10:51;;;;;;;3.80;1.90;;;17.40;99.90;;;;;;4939777;28;20231;-74
2021/10/04 11:13:22;;;;;;;2.87;1.50;;;17.50;99.90;;;;;;4956122;29;20972;-74
2021/10/04 11:15:48;;;;;;;1.43;1.33;;;17.50;99.90;;;;;;4974065;28;20933;-75
2021/10/04 11:18:13;;;;;;;2.70;1.60;;;17.50;99.90;;;;;;4975096;28;20420;-74
2021/10/04 11:20:39;;;;;;;2.60;1.97;;;17.50;99.90;;;;;;4974527;28;20177;-75
2021/10/04 11:23:16;;;;;;;3.97;2.10;;;17.40;99.90;;;;;;4974524;28;20606;-74
2021/10/04 11:25:42;;;;;;;4.87;2.13;;;17.40;99.90;;;;;;4974256;28;20196;-74
2021/10/04 11:28:08;;;;;;;1.77;1.63;;;17.30;99.90;;;;;;4974906;28;20471;-75
2021/10/04 11:30:58;;;;;;;1.57;1.47;;;17.30;99.90;;;;;;4974039;28;20439;-74
2021/10/04 11:33:27;;;;;;;1.57;1.40;;;17.20;99.90;;;;;;4974842;28;20460;-74
2021/10/04 11:35:57;;;;;;;1.23;1.13;;;17.20;99.90;;;;;;4974227;28;20503;-74
2021/10/04 11:38:23;;;;;;;3.07;1.80;;;17.00;99.90;;;;;;4963880;28;20856;-72
2021/10/04 11:40:49;;;;;;;3.93;1.60;;;16.90;99.90;;;;;;4966276;28;20444;-74
2021/10/04 11:43:14;;;;;;;2.30;1.60;;;16.90;99.90;;;;;;4970415;28;20988;-75
2021/10/04 11:45:40;;;;;;;1.90;1.30;;;16.90;99.90;;;;;;4970649;28;20267;-74
2021/10/04 11:48:06;;;;;;;1.87;1.73;;;16.80;99.90;;;;;;4971985;28;20220;-72
2021/10/04 11:50:38;;;;;;;2.20;1.40;;;16.80;99.90;;;;;;4972131;28;20271;-75
2021/10/04 11:53:06;;;;;;;4.03;1.63;;;16.80;99.90;;;;;;4973474;28;20472;-73
2021/10/04 11:55:31;;;;;;;2.50;1.50;;;16.90;99.90;;;;;;4991530;28;20448;-74
2021/10/04 11:57:57;;;;;;;2.33;1.47;;;16.90;99.90;;;;;;4975050;28;20467;-74
2021/10/04 12:00:22;;;;;;;2.83;1.57;;;16.90;99.90;;;;;;4972430;28;20193;-74
2021/10/04 12:02:49;;;;;;;1.60;1.50;;;16.90;99.90;;;;;;4971148;28;20562;-74
2021/10/04 12:05:19;;;;;;;1.90;1.50;;;17.00;99.90;;;;;;4971750;28;20221;-74
2021/10/04 12:08:06;;;;;;;1.37;1.27;;;17.00;99.90;;;;;;4974997;28;20794;-74
2021/10/04 12:10:45;;;;;;;2.20;1.60;;;16.90;99.90;;;;;;4979061;28;20442;-74
2021/10/04 12:13:19;;;;;;;2.17;1.60;;;16.90;99.90;;;;;;4980014;28;20582;-74
2021/10/04 12:15:46;;;;;;;3.67;1.70;;;16.90;99.90;;;;;;4981115;28;20444;-74
2021/10/04 12:18:42;;;;;;;1.40;1.30;;;16.90;99.90;;;;;;4988610;28;20424;-74
2021/10/04 12:21:37;;;;;;;2.10;1.90;;;16.90;99.90;;;;;;4992014;28;20408;-74
2021/10/04 12:24:05;;;;;;;2.73;1.83;;;16.90;99.90;;;;;;4979748;28;20487;-72
2021/10/04 12:26:32;;;;;;;2.70;1.53;;;16.90;99.90;;;;;;4978895;28;20446;-74
2021/10/04 12:28:57;;;;;;;2.20;1.63;;;16.90;99.90;;;;;;4977456;28;20430;-73
2021/10/04 12:31:36;;;;;;;1.77;1.50;;;16.90;99.90;;;;;;4977648;28;20790;-73
2021/10/04 12:34:18;;;;;;;1.70;1.33;;;16.90;99.90;;;;;;4978047;28;20180;-73
2021/10/04 12:36:44;;;;;;;4.13;1.60;;;16.90;99.90;;;;;;4976983;28;20525;-73
2021/10/04 12:39:10;;;;;;;1.87;1.40;;;16.90;99.90;;;;;;4976437;28;20519;-73
2021/10/04 12:41:54;;;;;;;2.80;1.60;;;16.90;99.90;;;;;;4977784;28;20177;-74
2021/10/04 12:44:20;;;;;;;1.50;1.40;;;17.10;99.90;;;;;;4977533;28;20261;-73
2021/10/04 12:47:02;;;;;;;2.53;1.40;;;17.20;99.90;;;;;;4980721;28;20456;-73
2021/10/04 12:49:28;;;;;;;1.40;1.30;;;17.20;99.90;;;;;;4986938;28;20432;-73
2021/10/04 12:51:53;;;;;;;2.10;1.40;;;17.30;99.90;;;;;;4977408;28;20494;-74
2021/10/04 12:54:25;;;;;;;2.27;1.70;;;17.30;99.90;;;;;;4988907;28;20696;-74
2021/10/04 12:56:52;;;;;;;2.30;1.57;;;17.40;99.90;;;;;;4996845;28;20334;-74
2021/10/04 12:59:24;;;;;;;1.83;1.40;;;17.30;99.90;;;;;;4996209;28;20442;-74
2021/10/04 13:01:55;;;;;;;2.70;1.20;;;17.40;99.50;;;;;;4997003;28;20403;-74
2021/10/04 13:04:35;;;;;;;1.57;1.20;;;17.40;99.60;;;;;;4983935;28;20428;-74
2021/10/04 13:07:04;;;;;;;2.43;1.47;;;17.30;99.30;;;;;;4977745;28;20833;-73
2021/10/04 13:09:30;;;;;;;1.70;1.60;;;17.30;99.10;;;;;;4976814;28;20424;-74
2021/10/04 13:11:56;;;;;;;2.80;1.30;;;17.40;98.80;;;;;;4970398;28;20503;-73
2021/10/04 13:14:24;;;;;;;2.10;1.20;;;17.40;98.70;;;;;;4946448;28;20258;-73
2021/10/04 13:16:51;;;;;;;2.30;1.97;;;17.30;99.10;;;;;;4970377;28;20940;-75
2021/10/04 13:19:18;;;;;;;2.63;1.70;;;17.40;99.20;;;;;;4971305;28;20450;-73
2021/10/04 13:21:45;;;;;;;1.43;1.10;;;17.50;99.10;;;;;;4971392;28;20447;-74
2021/10/04 13:24:15;;;;;;;1.40;1.30;;;17.50;98.50;;;;;;4971584;28;20413;-74
2021/10/04 13:26:42;;;;;;;2.00;1.30;;;17.50;97.60;;;;;;4971289;28;20928;-74
2021/10/04 13:29:09;;;;;;;1.83;1.20;;;17.50;97.20;;;;;;4984115;28;20403;-74
2021/10/04 13:31:36;;;;;;;1.30;1.20;;;17.50;97.20;;;;;;4993800;28;20881;-74
2021/10/04 13:34:02;;;;;;;1.67;1.33;;;17.40;97.10;;;;;;4978932;28;20911;-74
2021/10/04 13:36:28;;;;;;;2.93;1.53;;;17.40;96.70;;;;;;4971771;28;20456;-74
2021/10/04 13:38:54;;;;;;;2.30;1.20;;;17.50;97.20;;;;;;4973317;28;20750;-73
2021/10/04 13:41:20;;;;;;;2.13;1.33;;;17.60;97.30;;;;;;4972928;28;20526;-73
2021/10/04 13:43:47;;;;;;;1.47;1.23;;;17.70;97.40;;;;;;4973587;28;20181;-74
2021/10/04 13:46:13;;;;;;;3.40;1.53;;;17.80;97.20;;;;;;4973279;28;20467;-73
2021/10/04 13:48:39;;;;;;;1.53;1.43;;;17.90;96.40;;;;;;4973006;28;20467;-73
2021/10/04 13:51:05;;;;;;;3.57;1.50;;;18.00;96.30;;;;;;4972590;28;20432;-73
2021/10/04 13:53:32;;;;;;;3.60;1.30;;;18.00;96.20;;;;;;4977837;28;20243;-74
2021/10/04 13:56:01;;;;;;;1.43;1.33;;;18.10;95.70;;;;;;4974149;28;21050;-74
2021/10/04 13:58:27;;;;;;;1.20;1.10;;;18.20;95.70;;;;;;4972240;28;20491;-74
2021/10/04 14:00:53;;;;;;;1.10;1.00;;;18.30;95.80;;;;;;4972356;28;20466;-74
2021/10/04 14:03:18;;;;;;;1.50;1.10;;;18.30;95.30;;;;;;4972326;28;20424;-74
2021/10/04 14:05:44;;;;;;;1.40;1.20;;;18.40;95.50;;;;;;4972043;28;20564;-74
2021/10/04 14:08:10;;;;;;;2.13;1.20;;;18.50;95.40;;;;;;4966374;28;20189;-74
2021/10/04 14:10:35;;;;;;;3.43;1.40;;;18.60;95.30;;;;;;4968511;28;20192;-74
2021/10/04 14:13:01;;;;;;;2.60;1.27;;;18.60;95.00;;;;;;4972726;28;20200;-73
2021/10/04 14:15:28;;;;;;;2.20;1.00;;;18.70;94.70;;;;;;4971466;28;20206;-74
2021/10/04 14:17:54;;;;;;;1.10;1.00;;;18.80;94.60;;;;;;4970215;28;20263;-75
2021/10/04 14:20:20;;;;;;;1.73;1.17;;;18.80;94.40;;;;;;4972111;28;20416;-75
2021/10/04 14:22:47;;;;;;;2.10;1.30;;;18.90;94.50;;;;;;4972197;28;20188;-75
2021/10/04 14:25:15;;;;;;;1.07;1.03;;;19.10;94.30;;;;;;4971773;28;20447;-75
2021/10/04 14:27:41;;;;;;;3.47;1.00;;;19.10;94.20;;;;;;4972122;28;20798;-75
2021/10/04 14:30:09;;;;;;;2.27;1.30;;;19.20;94.00;;;;;;4971608;28;20992;-75
2021/10/04 14:32:36;;;;;;;1.23;1.10;;;19.30;94.00;;;;;;4972258;28;20459;-75
2021/10/04 14:35:09;;;;;;;2.00;1.20;;;19.30;93.30;;;;;;4971672;28;20905;-75
2021/10/04 14:37:35;;;;;;;1.30;1.10;;;19.30;92.60;;;;;;4971630;28;20482;-74
2021/10/04 14:40:03;;;;;;;1.30;1.20;;;19.40;92.40;;;;;;4970795;28;20424;-75
2021/10/04 14:42:29;;;;;;;1.40;1.30;;;19.40;92.10;;;;;;4971806;28;20778;-74
2021/10/04 14:44:55;;;;;;;1.83;1.00;;;19.40;92.40;;;;;;4971803;28;20435;-75
2021/10/04 14:47:20;;;;;;;2.07;1.37;;;19.40;92.30;;;;;;4972067;28;20416;-75
2021/10/04 14:49:46;;;;;;;1.80;1.37;;;19.40;92.10;;;;;;4970767;28;20184;-75
2021/10/04 14:52:12;;;;;;;2.20;1.20;;;19.50;92.20;;;;;;4970872;28;20235;-74
2021/10/04 14:54:37;;;;;;;2.63;1.80;;;19.40;92.30;;;;;;4986227;28;20611;-74
2021/10/04 14:57:04;;;;;;;2.70;1.40;;;19.30;92.40;;;;;;4988788;28;20435;-75
2021/10/04 14:59:30;;;;;;;1.30;1.20;;;19.20;92.60;;;;;;4989556;28;20176;-74
2021/10/04 15:01:55;;;;;;;1.90;1.30;;;19.10;92.40;;;;;;4991298;28;20427;-74
2021/10/04 15:04:21;;;;;;;1.50;1.33;;;18.90;92.40;;;;;;4977472;28;20211;-74
2021/10/04 15:06:46;;;;;;;1.80;1.50;;;18.90;92.80;;;;;;4971587;28;20760;-74
2021/10/04 15:09:12;;;;;;;3.13;1.50;;;18.70;92.90;;;;;;4971600;28;20203;-75
2021/10/04 15:11:38;;;;;;;1.60;1.50;;;18.60;93.20;;;;;;4971020;28;20188;-73
2021/10/04 15:14:04;;;;;;;1.83;1.73;;;18.40;93.40;;;;;;4971335;28;20184;-74
2021/10/04 15:16:29;;;;;;;3.87;1.53;;;18.40;93.40;;;;;;4973146;28;20247;-74
2021/10/04 15:18:56;;;;;;;1.50;1.40;;;18.30;93.40;;;;;;4973108;28;20503;-74
2021/10/04 15:21:21;;;;;;;1.50;1.37;;;18.20;94.00;;;;;;4972548;28;20584;-74
2021/10/04 15:23:47;;;;;;;3.27;1.53;;;18.00;94.20;;;;;;4969645;28;20420;-74
2021/10/04 15:26:13;;;;;;;1.37;1.27;;;17.90;94.70;;;;;;4971610;28;20256;-74
2021/10/04 15:28:39;;;;;;;2.20;1.33;;;17.80;94.90;;;;;;4974268;28;20275;-75
2021/10/04 15:31:04;;;;;;;1.83;1.70;;;17.70;95.10;;;;;;4971838;28;20235;-74
2021/10/04 15:33:30;;;;;;;1.57;1.47;;;17.60;95.40;;;;;;4969881;28;20204;-75
2021/10/04 15:35:56;;;;;;;1.60;1.50;;;17.50;95.30;;;;;;4971597;28;20452;-74
2021/10/04 15:38:24;;;;;;;1.70;1.30;;;17.50;95.40;;;;;;4972037;28;20188;-75
2021/10/04 15:40:51;;;;;;;2.00;1.53;;;17.40;95.50;;;;;;4972919;28;20412;-74
2021/10/04 15:43:17;;;;;;;2.37;1.53;;;17.30;95.70;;;;;;4973835;28;20892;-69
2021/10/04 15:45:45;;;;;;;3.33;1.37;;;17.30;96.30;;;;;;4977205;28;20439;-73
2021/10/04 15:48:12;;;;;;;1.63;1.43;;;17.30;96.80;;;;;;4989356;28;20428;-73
2021/10/04 15:50:40;;;;;;;2.10;1.63;;;17.30;96.20;;;;;;4975927;28;20469;-74
2021/10/04 15:53:06;;;;;;;2.17;1.58;;;17.20;95.70;;;;;;4967631;28;20542;-74
2021/10/04 15:55:33;;;;;;;3.40;1.57;;;17.10;95.60;;;;;;4996850;28;20275;-73
2021/10/04 15:57:59;;;;;;;1.37;1.00;;;17.10;96.00;;;;;;4979630;28;20487;-73
2021/10/04 16:00:25;;;;;;;1.38;1.27;;;17.10;96.20;;;;;;4967675;28;20774;-74
2021/10/04 16:02:51;;;;;;;1.67;1.57;;;17.10;96.20;;;;;;4968589;28;20209;-73
2021/10/04 16:05:19;;;;;;;2.10;1.90;;;17.10;96.30;;;;;;4967952;28;20913;-73
2021/10/04 16:07:50;;;;;;;1.73;1.50;;;17.00;96.40;;;;;;4965147;28;20729;-73
2021/10/04 16:10:16;;;;;;;2.97;1.90;;;16.90;96.50;;;;;;4978630;28;20424;-72
2021/10/04 16:12:42;;;;;;;2.40;1.20;;;16.90;96.60;;;;;;4981058;28;20443;-72
2021/10/04 16:15:08;;;;;;;1.30;1.20;;;16.80;96.70;;;;;;4978970;28;20314;-73
2021/10/04 16:17:34;;;;;;;1.87;1.30;;;16.80;96.90;;;;;;4978753;28;20181;-73
2021/10/04 16:19:59;;;;;;;1.50;1.40;;;16.80;97.10;;;;;;4994376;28;20856;-73
2021/10/04 16:22:25;;;;;;;3.10;1.30;;;16.80;97.20;;;;;;4983518;28;20201;-74
2021/10/04 16:24:51;;;;;;;2.40;1.27;;;16.80;97.30;;;;;;4968608;29;20228;-73
2021/10/04 16:27:16;;;;;;;2.87;1.63;;;16.70;97.30;;;;;;4967423;28;20174;-74
2021/10/04 16:29:42;;;;;;;1.50;1.40;;;16.70;97.50;;;;;;4972153;28;20224;-73
2021/10/04 16:32:07;;;;;;;1.97;1.60;;;16.70;97.90;;;;;;4976684;28;20216;-73
2021/10/04 16:34:33;;;;;;;2.20;1.60;;;16.60;98.10;;;;;;4977722;28;20313;-73
2021/10/04 16:36:59;;;;;;;2.90;1.87;;;16.60;98.20;;;;;;4977874;28;20214;-73
2021/10/04 16:39:25;;;;;;;2.60;1.93;;;16.60;98.30;;;;;;4977542;28;20173;-73
2021/10/04 16:41:50;;;;;;;2.33;1.53;;;16.50;98.20;;;;;;4976436;28;20185;-73
2021/10/04 16:44:16;;;;;;;1.50;1.40;;;16.50;98.40;;;;;;4977716;28;20236;-74
2021/10/04 16:46:41;;;;;;;1.67;1.30;;;16.40;98.50;;;;;;4976371;28;20196;-74
2021/10/04 16:49:07;;;;;;;2.90;1.37;;;16.40;98.60;;;;;;4977683;28;20189;-72
2021/10/04 16:51:32;;;;;;;1.73;1.37;;;16.40;98.70;;;;;;4977360;28;20268;-74
2021/10/04 16:54:01;;;;;;;3.03;1.60;;;16.30;98.70;;;;;;4976010;28;20351;-74
2021/10/04 16:56:26;;;;;;;2.33;1.57;;;16.30;99.00;;;;;;4975356;28;20279;-73
2021/10/04 16:58:52;;;;;;;3.30;1.57;;;16.20;99.10;;;;;;4975352;28;20466;-74
2021/10/04 17:01:18;;;;;;;3.50;2.00;;;16.10;99.20;;;;;;4976301;28;20665;-74
2021/10/04 17:03:43;;;;;;;1.70;1.60;;;16.10;99.50;;;;;;4975989;28;20705;-74
2021/10/04 17:06:09;;;;;;;3.77;2.07;;;16.00;99.50;;;;;;4975620;28;20200;-74
2021/10/04 17:08:35;;;;;;;1.83;1.67;;;16.00;99.80;;;;;;4975944;28;20622;-74
2021/10/04 17:11:04;;;;;;;1.80;1.70;;;15.90;99.90;;;;;;4976406;28;20467;-74
2021/10/04 17:13:31;;;;;;;1.80;1.60;;;15.90;99.90;;;;;;4977142;28;20201;-74
2021/10/04 17:15:56;;;;;;;2.83;2.00;;;15.80;99.90;;;;;;4976448;28;20984;-73
2021/10/04 17:18:22;;;;;;;2.23;1.50;;;15.70;99.90;;;;;;4976877;28;20404;-73
2021/10/04 17:20:48;;;;;;;3.50;1.77;;;15.60;99.90;;;;;;4976934;28;20216;-73
2021/10/04 17:23:13;;;;;;;2.90;2.00;;;15.50;99.90;;;;;;4977192;28;20181;-73
2021/10/04 17:25:39;;;;;;;2.43;1.90;;;15.50;99.90;;;;;;4976087;28;20221;-73
2021/10/04 17:28:05;;;;;;;2.00;1.70;;;15.50;99.90;;;;;;4976693;28;20427;-73
2021/10/04 17:30:30;;;;;;;2.33;1.87;;;15.40;99.90;;;;;;4976933;28;20219;-74
2021/10/04 17:32:56;;;;;;;2.00;1.90;;;15.30;99.90;;;;;;4976485;28;20295;-73
2021/10/04 17:35:22;;;;;;;1.90;1.73;;;15.30;99.90;;;;;;4976258;28;20200;-73
2021/10/04 17:37:49;;;;;;;2.70;1.70;;;15.20;99.90;;;;;;4976818;28;20644;-73
2021/10/04 17:40:15;;;;;;;2.07;1.80;;;15.20;99.90;;;;;;4976570;28;20439;-74
2021/10/04 17:42:41;;;;;;;2.70;1.73;;;15.10;99.90;;;;;;4976734;28;20454;-74
2021/10/04 17:45:09;;;;;;;1.63;1.53;;;15.10;99.90;;;;;;4976370;28;20542;-74
2021/10/04 17:47:36;;;;;;;1.97;1.53;;;15.00;99.90;;;;;;4975179;28;20192;-74
2021/10/04 17:50:04;;;;;;;3.20;1.87;;;15.00;99.90;;;;;;4977540;28;20416;-74
2021/10/04 17:52:30;;;;;;;1.80;1.70;;;14.90;99.90;;;;;;4976359;28;20482;-73
2021/10/04 17:54:56;;;;;;;3.83;1.70;;;14.80;99.90;;;;;;4976062;28;20420;-74
2021/10/04 17:57:22;;;;;;;2.23;1.97;;;14.80;99.90;;;;;;4976471;28;20203;-75
2021/10/04 17:59:48;;;;;;;3.10;2.00;;;14.70;99.90;;;;;;4976000;28;20420;-73
2021/10/04 18:02:14;;;;;;;2.13;1.97;;;14.70;99.90;;;;;;4975289;28;20615;-73
2021/10/04 18:04:39;;;;;;;2.80;2.13;;;14.60;99.90;;;;;;4975138;28;20590;-73
2021/10/04 18:07:05;;;;;;;2.30;1.97;;;14.60;99.90;;;;;;4975980;28;20444;-73
2021/10/04 18:09:31;;;;;;;2.63;2.00;;;14.50;99.90;;;;;;4975535;28;20268;-74